sensor_id;sensor_type;location;lat;lon;timestamp;temperature;humidity
26541;DHT22;14206;50.202;10.948;2023-03-12T00:02:20;-2.20;95.20
26541;DHT22;14206;50.202;10.948;2023-03-12T00:04:48;-2.20;95.60
26541;DHT22;14206;50.202;10.948;2023-03-12T00:07:36;-2.20;96.00
26541;DHT22;14206;50.202;10.948;2023-03-12T00:10:05;-2.20;95.80
26541;DHT22;14206;50.202;10.948;2023-03-12T00:12:32;-2.20;96.20
26541;DHT22;14206;50.202;10.948;2023-03-12T00:14:59;-2.20;96.40
26541;DHT22;14206;50.202;10.948;2023-03-12T00:17:28;-2.20;96.20
26541;DHT22;14206;50.202;10.948;2023-03-12T00:19:55;-2.30;96.40
26541;DHT22;14206;50.202;10.948;2023-03-12T00:22:22;-2.30;96.30
26541;DHT22;14206;50.202;10.948;2023-03-12T00:24:52;-2.30;96.50
26541;DHT22;14206;50.202;10.948;2023-03-12T00:27:19;-2.30;96.40
26541;DHT22;14206;50.202;10.948;2023-03-12T00:29:46;-2.30;96.20
26541;DHT22;14206;50.202;10.948;2023-03-12T00:32:13;-2.40;96.10
26541;DHT22;14206;50.202;10.948;2023-03-12T00:34:40;-2.40;96.50
26541;DHT22;14206;50.202;10.948;2023-03-12T00:37:07;-2.40;96.60
26541;DHT22;14206;50.202;10.948;2023-03-12T00:39:34;-2.40;96.60
26541;DHT22;14206;50.202;10.948;2023-03-12T00:42:01;-2.40;96.60
26541;DHT22;14206;50.202;10.948;2023-03-12T00:44:28;-2.40;96.60
26541;DHT22;14206;50.202;10.948;2023-03-12T00:46:55;-2.50;96.60
26541;DHT22;14206;50.202;10.948;2023-03-12T00:49:22;-2.50;96.60
26541;DHT22;14206;50.202;10.948;2023-03-12T00:51:49;-2.50;96.60
26541;DHT22;14206;50.202;10.948;2023-03-12T00:54:15;-2.50;96.60
26541;DHT22;14206;50.202;10.948;2023-03-12T00:56:42;-2.50;96.60
26541;DHT22;14206;50.202;10.948;2023-03-12T00:59:11;-2.50;96.60
26541;DHT22;14206;50.202;10.948;2023-03-12T01:01:38;-2.50;96.60
26541;DHT22;14206;50.202;10.948;2023-03-12T01:04:05;-2.50;96.40
26541;DHT22;14206;50.202;10.948;2023-03-12T01:06:32;-2.60;96.20
26541;DHT22;14206;50.202;10.948;2023-03-12T01:09:01;-2.60;96.60
26541;DHT22;14206;50.202;10.948;2023-03-12T01:11:28;-2.60;96.60
26541;DHT22;14206;50.202;10.948;2023-03-12T01:13:56;-2.60;96.60
26541;DHT22;14206;50.202;10.948;2023-03-12T01:16:23;-2.60;96.60
26541;DHT22;14206;50.202;10.948;2023-03-12T01:18:54;-2.60;96.60
26541;DHT22;14206;50.202;10.948;2023-03-12T01:21:22;-2.60;96.60
26541;DHT22;14206;50.202;10.948;2023-03-12T01:23:49;-2.60;96.60
26541;DHT22;14206;50.202;10.948;2023-03-12T01:26:16;-2.60;96.60
26541;DHT22;14206;50.202;10.948;2023-03-12T01:28:44;-2.60;96.60
26541;DHT22;14206;50.202;10.948;2023-03-12T01:31:14;-2.60;96.60
26541;DHT22;14206;50.202;10.948;2023-03-12T01:33:41;-2.60;96.60
26541;DHT22;14206;50.202;10.948;2023-03-12T01:36:16;-2.60;96.60
26541;DHT22;14206;50.202;10.948;2023-03-12T01:38:43;-2.50;96.60
26541;DHT22;14206;50.202;10.948;2023-03-12T01:41:10;-2.60;96.60
26541;DHT22;14206;50.202;10.948;2023-03-12T01:43:38;-2.60;96.60
26541;DHT22;14206;50.202;10.948;2023-03-12T01:46:31;-2.60;96.60
26541;DHT22;14206;50.202;10.948;2023-03-12T01:49:09;-2.60;96.60
26541;DHT22;14206;50.202;10.948;2023-03-12T01:54:33;-2.60;96.60
26541;DHT22;14206;50.202;10.948;2023-03-12T01:57:03;-2.60;96.60
26541;DHT22;14206;50.202;10.948;2023-03-12T02:00:04;-2.70;96.60
26541;DHT22;14206;50.202;10.948;2023-03-12T02:02:40;-2.70;96.60
26541;DHT22;14206;50.202;10.948;2023-03-12T02:05:15;-2.70;96.60
26541;DHT22;14206;50.202;10.948;2023-03-12T02:07:43;-2.70;96.60
26541;DHT22;14206;50.202;10.948;2023-03-12T02:10:10;-2.70;96.60
26541;DHT22;14206;50.202;10.948;2023-03-12T02:12:38;-2.70;96.60
26541;DHT22;14206;50.202;10.948;2023-03-12T02:15:05;-2.70;96.60
26541;DHT22;14206;50.202;10.948;2023-03-12T02:17:32;-2.70;96.60
26541;DHT22;14206;50.202;10.948;2023-03-12T02:23:12;-2.70;96.60
26541;DHT22;14206;50.202;10.948;2023-03-12T02:25:45;-2.70;96.60
26541;DHT22;14206;50.202;10.948;2023-03-12T02:28:15;-2.70;96.60
26541;DHT22;14206;50.202;10.948;2023-03-12T02:30:47;-2.60;96.60
26541;DHT22;14206;50.202;10.948;2023-03-12T02:33:14;-2.60;96.60
26541;DHT22;14206;50.202;10.948;2023-03-12T02:35:43;-2.50;96.60
26541;DHT22;14206;50.202;10.948;2023-03-12T02:38:37;-2.40;96.60
26541;DHT22;14206;50.202;10.948;2023-03-12T02:41:23;-2.30;96.60
26541;DHT22;14206;50.202;10.948;2023-03-12T02:46:34;-2.10;96.60
26541;DHT22;14206;50.202;10.948;2023-03-12T02:49:02;-2.00;96.60
26541;DHT22;14206;50.202;10.948;2023-03-12T02:51:29;-1.90;96.60
26541;DHT22;14206;50.202;10.948;2023-03-12T02:53:56;-1.70;96.60
26541;DHT22;14206;50.202;10.948;2023-03-12T02:56:25;-1.60;96.60
26541;DHT22;14206;50.202;10.948;2023-03-12T02:58:52;-1.50;96.60
26541;DHT22;14206;50.202;10.948;2023-03-12T03:01:21;-1.50;96.60
26541;DHT22;14206;50.202;10.948;2023-03-12T03:03:49;-1.40;96.60
26541;DHT22;14206;50.202;10.948;2023-03-12T03:06:17;-1.30;96.60
26541;DHT22;14206;50.202;10.948;2023-03-12T03:08:44;-1.30;96.60
26541;DHT22;14206;50.202;10.948;2023-03-12T03:11:11;-1.20;96.60
26541;DHT22;14206;50.202;10.948;2023-03-12T03:13:39;-1.20;96.60
26541;DHT22;14206;50.202;10.948;2023-03-12T03:16:06;-1.10;96.60
26541;DHT22;14206;50.202;10.948;2023-03-12T03:18:33;-1.10;96.60
26541;DHT22;14206;50.202;10.948;2023-03-12T03:21:05;-1.00;96.60
26541;DHT22;14206;50.202;10.948;2023-03-12T03:23:34;-1.00;96.60
26541;DHT22;14206;50.202;10.948;2023-03-12T03:26:01;-1.00;96.60
26541;DHT22;14206;50.202;10.948;2023-03-12T03:28:28;-0.90;96.60
26541;DHT22;14206;50.202;10.948;2023-03-12T03:30:57;-0.90;96.60
26541;DHT22;14206;50.202;10.948;2023-03-12T03:33:29;-0.80;96.60
26541;DHT22;14206;50.202;10.948;2023-03-12T03:35:57;-0.80;96.60
26541;DHT22;14206;50.202;10.948;2023-03-12T03:38:28;-0.80;96.50
26541;DHT22;14206;50.202;10.948;2023-03-12T03:40:55;-0.80;96.40
26541;DHT22;14206;50.202;10.948;2023-03-12T03:43:22;-0.80;96.60
26541;DHT22;14206;50.202;10.948;2023-03-12T03:46:00;-0.80;96.50
26541;DHT22;14206;50.202;10.948;2023-03-12T03:48:31;-0.80;96.50
26541;DHT22;14206;50.202;10.948;2023-03-12T03:51:02;-0.80;96.60
26541;DHT22;14206;50.202;10.948;2023-03-12T03:53:32;-0.80;96.60
26541;DHT22;14206;50.202;10.948;2023-03-12T03:56:11;-0.70;96.40
26541;DHT22;14206;50.202;10.948;2023-03-12T03:58:42;-0.70;96.30
26541;DHT22;14206;50.202;10.948;2023-03-12T04:01:12;-0.70;96.40
26541;DHT22;14206;50.202;10.948;2023-03-12T04:03:40;-0.70;96.30
26541;DHT22;14206;50.202;10.948;2023-03-12T04:06:08;-0.60;96.30
26541;DHT22;14206;50.202;10.948;2023-03-12T04:08:36;-0.60;96.30
26541;DHT22;14206;50.202;10.948;2023-03-12T04:11:14;-0.60;96.00
26541;DHT22;14206;50.202;10.948;2023-03-12T04:13:42;-0.60;96.00
26541;DHT22;14206;50.202;10.948;2023-03-12T04:16:11;-0.60;95.80
26541;DHT22;14206;50.202;10.948;2023-03-12T04:18:38;-0.60;96.10
26541;DHT22;14206;50.202;10.948;2023-03-12T04:21:10;-0.60;96.00
26541;DHT22;14206;50.202;10.948;2023-03-12T04:23:38;-0.50;96.00
26541;DHT22;14206;50.202;10.948;2023-03-12T04:26:07;-0.50;96.10
26541;DHT22;14206;50.202;10.948;2023-03-12T04:28:35;-0.50;96.00
26541;DHT22;14206;50.202;10.948;2023-03-12T04:31:05;-0.60;96.20
26541;DHT22;14206;50.202;10.948;2023-03-12T04:33:44;-0.60;95.90
26541;DHT22;14206;50.202;10.948;2023-03-12T04:36:11;-0.60;96.10
26541;DHT22;14206;50.202;10.948;2023-03-12T04:38:42;-0.60;96.20
26541;DHT22;14206;50.202;10.948;2023-03-12T04:41:12;-0.60;95.90
26541;DHT22;14206;50.202;10.948;2023-03-12T04:43:45;-0.60;96.20
26541;DHT22;14206;50.202;10.948;2023-03-12T04:46:14;-0.60;96.10
26541;DHT22;14206;50.202;10.948;2023-03-12T04:48:43;-0.60;96.10
26541;DHT22;14206;50.202;10.948;2023-03-12T04:51:11;-0.60;96.30
26541;DHT22;14206;50.202;10.948;2023-03-12T04:53:38;-0.60;96.30
26541;DHT22;14206;50.202;10.948;2023-03-12T04:56:07;-0.60;96.00
26541;DHT22;14206;50.202;10.948;2023-03-12T04:58:39;-0.60;96.10
26541;DHT22;14206;50.202;10.948;2023-03-12T05:01:06;-0.60;96.20
26541;DHT22;14206;50.202;10.948;2023-03-12T05:03:34;-0.60;95.90
26541;DHT22;14206;50.202;10.948;2023-03-12T05:06:01;-0.50;96.40
26541;DHT22;14206;50.202;10.948;2023-03-12T05:08:28;-0.50;96.30
26541;DHT22;14206;50.202;10.948;2023-03-12T05:10:55;-0.50;96.20
26541;DHT22;14206;50.202;10.948;2023-03-12T05:13:22;-0.50;95.80
26541;DHT22;14206;50.202;10.948;2023-03-12T05:15:53;-0.60;96.00
26541;DHT22;14206;50.202;10.948;2023-03-12T05:18:20;-0.60;96.30
26541;DHT22;14206;50.202;10.948;2023-03-12T05:21:05;-0.60;96.20
26541;DHT22;14206;50.202;10.948;2023-03-12T05:23:33;-0.50;96.30
26541;DHT22;14206;50.202;10.948;2023-03-12T05:26:00;-0.50;96.30
26541;DHT22;14206;50.202;10.948;2023-03-12T05:28:28;-0.50;95.50
26541;DHT22;14206;50.202;10.948;2023-03-12T05:30:59;-0.50;96.00
26541;DHT22;14206;50.202;10.948;2023-03-12T05:33:27;-0.50;96.10
26541;DHT22;14206;50.202;10.948;2023-03-12T05:35:54;-0.40;95.60
26541;DHT22;14206;50.202;10.948;2023-03-12T05:38:22;-0.40;95.80
26541;DHT22;14206;50.202;10.948;2023-03-12T05:40:51;-0.40;95.80
26541;DHT22;14206;50.202;10.948;2023-03-12T05:43:19;-0.40;95.50
26541;DHT22;14206;50.202;10.948;2023-03-12T05:45:47;-0.40;95.30
26541;DHT22;14206;50.202;10.948;2023-03-12T05:48:14;-0.40;95.70
26541;DHT22;14206;50.202;10.948;2023-03-12T05:50:41;-0.40;95.50
26541;DHT22;14206;50.202;10.948;2023-03-12T05:53:09;-0.30;95.60
26541;DHT22;14206;50.202;10.948;2023-03-12T05:55:38;-0.20;95.90
26541;DHT22;14206;50.202;10.948;2023-03-12T05:58:06;-0.20;95.50
26541;DHT22;14206;50.202;10.948;2023-03-12T06:00:34;-0.10;94.90
26541;DHT22;14206;50.202;10.948;2023-03-12T06:03:06;0.00;95.30
26541;DHT22;14206;50.202;10.948;2023-03-12T06:05:35;0.00;95.10
26541;DHT22;14206;50.202;10.948;2023-03-12T06:08:03;0.10;94.90
26541;DHT22;14206;50.202;10.948;2023-03-12T06:10:29;0.10;95.00
26541;DHT22;14206;50.202;10.948;2023-03-12T06:12:57;0.20;94.70
26541;DHT22;14206;50.202;10.948;2023-03-12T06:15:23;0.20;94.30
26541;DHT22;14206;50.202;10.948;2023-03-12T06:17:50;0.30;94.30
26541;DHT22;14206;50.202;10.948;2023-03-12T06:20:17;0.30;94.10
26541;DHT22;14206;50.202;10.948;2023-03-12T06:22:44;0.40;94.30
26541;DHT22;14206;50.202;10.948;2023-03-12T06:25:11;0.50;94.00
26541;DHT22;14206;50.202;10.948;2023-03-12T06:27:39;0.60;93.80
26541;DHT22;14206;50.202;10.948;2023-03-12T06:30:07;0.60;92.90
26541;DHT22;14206;50.202;10.948;2023-03-12T06:32:34;0.60;92.20
26541;DHT22;14206;50.202;10.948;2023-03-12T06:35:01;0.60;93.00
26541;DHT22;14206;50.202;10.948;2023-03-12T06:37:30;0.70;92.80
26541;DHT22;14206;50.202;10.948;2023-03-12T06:39:57;0.80;91.90
26541;DHT22;14206;50.202;10.948;2023-03-12T06:42:24;0.80;91.70
26541;DHT22;14206;50.202;10.948;2023-03-12T06:44:52;0.90;92.00
26541;DHT22;14206;50.202;10.948;2023-03-12T06:47:19;1.00;92.30
26541;DHT22;14206;50.202;10.948;2023-03-12T06:49:46;1.10;91.70
26541;DHT22;14206;50.202;10.948;2023-03-12T06:52:13;1.10;91.00
26541;DHT22;14206;50.202;10.948;2023-03-12T06:54:39;1.20;91.40
26541;DHT22;14206;50.202;10.948;2023-03-12T06:57:06;1.30;91.50
26541;DHT22;14206;50.202;10.948;2023-03-12T06:59:33;1.30;90.90
26541;DHT22;14206;50.202;10.948;2023-03-12T07:02:00;1.40;90.50
26541;DHT22;14206;50.202;10.948;2023-03-12T07:04:27;1.40;90.70
26541;DHT22;14206;50.202;10.948;2023-03-12T07:06:54;1.40;91.00
26541;DHT22;14206;50.202;10.948;2023-03-12T07:09:21;1.50;90.40
26541;DHT22;14206;50.202;10.948;2023-03-12T07:11:48;1.70;90.70
26541;DHT22;14206;50.202;10.948;2023-03-12T07:14:15;2.00;90.30
26541;DHT22;14206;50.202;10.948;2023-03-12T07:16:41;2.20;89.30
26541;DHT22;14206;50.202;10.948;2023-03-12T07:19:09;2.20;88.60
26541;DHT22;14206;50.202;10.948;2023-03-12T07:21:35;2.20;88.30
26541;DHT22;14206;50.202;10.948;2023-03-12T07:24:03;2.30;88.30
26541;DHT22;14206;50.202;10.948;2023-03-12T07:26:33;2.40;88.00
26541;DHT22;14206;50.202;10.948;2023-03-12T07:29:01;2.60;87.70
26541;DHT22;14206;50.202;10.948;2023-03-12T07:31:28;2.90;87.30
26541;DHT22;14206;50.202;10.948;2023-03-12T07:33:55;3.10;86.50
26541;DHT22;14206;50.202;10.948;2023-03-12T07:36:22;3.20;85.40
26541;DHT22;14206;50.202;10.948;2023-03-12T07:38:49;3.20;85.20
26541;DHT22;14206;50.202;10.948;2023-03-12T07:41:16;3.10;85.80
26541;DHT22;14206;50.202;10.948;2023-03-12T07:43:43;3.20;85.90
26541;DHT22;14206;50.202;10.948;2023-03-12T07:46:10;3.30;85.40
26541;DHT22;14206;50.202;10.948;2023-03-12T07:48:37;3.40;85.40
26541;DHT22;14206;50.202;10.948;2023-03-12T07:51:05;3.50;85.30
26541;DHT22;14206;50.202;10.948;2023-03-12T07:53:32;3.60;85.50
26541;DHT22;14206;50.202;10.948;2023-03-12T07:55:59;3.70;84.50
26541;DHT22;14206;50.202;10.948;2023-03-12T07:58:26;3.70;84.50
26541;DHT22;14206;50.202;10.948;2023-03-12T08:00:54;3.80;83.90
26541;DHT22;14206;50.202;10.948;2023-03-12T08:03:22;3.90;83.60
26541;DHT22;14206;50.202;10.948;2023-03-12T08:06:00;3.90;84.00
26541;DHT22;14206;50.202;10.948;2023-03-12T08:08:28;4.20;83.40
26541;DHT22;14206;50.202;10.948;2023-03-12T08:10:57;4.50;83.30
26541;DHT22;14206;50.202;10.948;2023-03-12T08:13:25;4.80;82.30
26541;DHT22;14206;50.202;10.948;2023-03-12T08:15:52;5.30;81.30
26541;DHT22;14206;50.202;10.948;2023-03-12T08:18:20;6.00;79.70
26541;DHT22;14206;50.202;10.948;2023-03-12T08:20:53;6.90;78.60
26541;DHT22;14206;50.202;10.948;2023-03-12T08:23:21;7.60;76.90
26541;DHT22;14206;50.202;10.948;2023-03-12T08:25:48;7.90;74.80
26541;DHT22;14206;50.202;10.948;2023-03-12T08:28:16;8.00;74.10
26541;DHT22;14206;50.202;10.948;2023-03-12T08:30:48;8.20;73.00
26541;DHT22;14206;50.202;10.948;2023-03-12T08:33:15;8.50;72.80
26541;DHT22;14206;50.202;10.948;2023-03-12T08:35:42;8.60;71.50
26541;DHT22;14206;50.202;10.948;2023-03-12T08:38:09;8.40;71.00
26541;DHT22;14206;50.202;10.948;2023-03-12T08:40:37;8.10;71.60
26541;DHT22;14206;50.202;10.948;2023-03-12T08:43:04;7.90;72.40
26541;DHT22;14206;50.202;10.948;2023-03-12T08:45:30;7.50;72.90
26541;DHT22;14206;50.202;10.948;2023-03-12T08:47:58;7.30;72.90
26541;DHT22;14206;50.202;10.948;2023-03-12T08:50:24;7.10;72.90
26541;DHT22;14206;50.202;10.948;2023-03-12T08:52:54;7.10;73.70
26541;DHT22;14206;50.202;10.948;2023-03-12T08:55:22;7.00;73.90
26541;DHT22;14206;50.202;10.948;2023-03-12T08:57:48;7.00;74.20
26541;DHT22;14206;50.202;10.948;2023-03-12T09:00:15;7.10;74.80
26541;DHT22;14206;50.202;10.948;2023-03-12T09:02:44;7.00;74.60
26541;DHT22;14206;50.202;10.948;2023-03-12T09:05:13;6.80;74.60
26541;DHT22;14206;50.202;10.948;2023-03-12T09:07:40;6.80;74.50
26541;DHT22;14206;50.202;10.948;2023-03-12T09:10:07;6.90;73.40
26541;DHT22;14206;50.202;10.948;2023-03-12T09:12:34;6.80;73.40
26541;DHT22;14206;50.202;10.948;2023-03-12T09:15:01;6.90;73.50
26541;DHT22;14206;50.202;10.948;2023-03-12T09:17:30;7.00;72.40
26541;DHT22;14206;50.202;10.948;2023-03-12T09:19:57;7.10;72.00
26541;DHT22;14206;50.202;10.948;2023-03-12T09:22:24;7.10;72.30
26541;DHT22;14206;50.202;10.948;2023-03-12T09:24:51;7.00;71.80
26541;DHT22;14206;50.202;10.948;2023-03-12T09:27:18;6.70;73.30
26541;DHT22;14206;50.202;10.948;2023-03-12T09:29:44;6.70;74.70
26541;DHT22;14206;50.202;10.948;2023-03-12T09:32:26;6.90;74.60
26541;DHT22;14206;50.202;10.948;2023-03-12T09:34:53;7.00;74.60
26541;DHT22;14206;50.202;10.948;2023-03-12T09:37:20;7.20;74.40
26541;DHT22;14206;50.202;10.948;2023-03-12T09:39:51;7.20;73.80
26541;DHT22;14206;50.202;10.948;2023-03-12T09:45:06;7.20;73.60
26541;DHT22;14206;50.202;10.948;2023-03-12T09:47:41;7.30;72.80
26541;DHT22;14206;50.202;10.948;2023-03-12T09:52:52;7.70;72.10
26541;DHT22;14206;50.202;10.948;2023-03-12T09:55:22;7.70;71.10
26541;DHT22;14206;50.202;10.948;2023-03-12T09:57:50;7.70;70.60
26541;DHT22;14206;50.202;10.948;2023-03-12T10:00:19;7.70;71.00
26541;DHT22;14206;50.202;10.948;2023-03-12T10:14:16;9.20;68.80
26541;DHT22;14206;50.202;10.948;2023-03-12T10:17:05;9.40;67.50
26541;DHT22;14206;50.202;10.948;2023-03-12T10:19:54;9.70;66.90
26541;DHT22;14206;50.202;10.948;2023-03-12T10:22:38;9.80;65.40
26541;DHT22;14206;50.202;10.948;2023-03-12T10:27:41;10.00;66.30
26541;DHT22;14206;50.202;10.948;2023-03-12T10:30:18;9.90;65.00
26541;DHT22;14206;50.202;10.948;2023-03-12T10:32:58;9.60;65.90
26541;DHT22;14206;50.202;10.948;2023-03-12T10:35:27;9.40;65.90
26541;DHT22;14206;50.202;10.948;2023-03-12T10:38:00;9.10;66.80
26541;DHT22;14206;50.202;10.948;2023-03-12T10:40:32;9.00;67.10
26541;DHT22;14206;50.202;10.948;2023-03-12T10:43:00;8.90;68.80
26541;DHT22;14206;50.202;10.948;2023-03-12T10:48:24;8.60;67.30
26541;DHT22;14206;50.202;10.948;2023-03-12T10:51:03;8.20;70.00
26541;DHT22;14206;50.202;10.948;2023-03-12T10:53:32;8.00;70.00
26541;DHT22;14206;50.202;10.948;2023-03-12T10:56:07;7.80;70.50
26541;DHT22;14206;50.202;10.948;2023-03-12T10:58:45;7.60;71.70
26541;DHT22;14206;50.202;10.948;2023-03-12T11:01:28;7.50;71.90
26541;DHT22;14206;50.202;10.948;2023-03-12T11:04:27;7.30;73.20
26541;DHT22;14206;50.202;10.948;2023-03-12T11:07:16;7.30;73.00
26541;DHT22;14206;50.202;10.948;2023-03-12T11:09:44;7.30;73.40
26541;DHT22;14206;50.202;10.948;2023-03-12T11:12:28;7.20;74.10
26541;DHT22;14206;50.202;10.948;2023-03-12T11:14:57;7.20;74.20
26541;DHT22;14206;50.202;10.948;2023-03-12T11:17:27;7.30;75.30
26541;DHT22;14206;50.202;10.948;2023-03-12T11:19:54;7.40;74.20
26541;DHT22;14206;50.202;10.948;2023-03-12T11:22:32;7.40;75.20
26541;DHT22;14206;50.202;10.948;2023-03-12T11:25:03;7.40;74.60
26541;DHT22;14206;50.202;10.948;2023-03-12T11:27:44;7.40;75.80
26541;DHT22;14206;50.202;10.948;2023-03-12T11:30:15;7.30;75.00
26541;DHT22;14206;50.202;10.948;2023-03-12T11:32:47;7.30;75.80
26541;DHT22;14206;50.202;10.948;2023-03-12T11:35:17;7.20;76.40
26541;DHT22;14206;50.202;10.948;2023-03-12T11:48:19;6.90;77.60
26541;DHT22;14206;50.202;10.948;2023-03-12T11:54:35;6.90;78.20
26541;DHT22;14206;50.202;10.948;2023-03-12T11:56:28;6.80;78.40
26541;DHT22;14206;50.202;10.948;2023-03-12T12:01:40;6.70;78.70
26541;DHT22;14206;50.202;10.948;2023-03-12T12:07:36;6.70;80.50
26541;DHT22;14206;50.202;10.948;2023-03-12T12:10:13;6.70;80.10
26541;DHT22;14206;50.202;10.948;2023-03-12T12:20:37;6.60;82.20
26541;DHT22;14206;50.202;10.948;2023-03-12T12:23:17;6.60;82.20
26541;DHT22;14206;50.202;10.948;2023-03-12T12:26:02;6.60;83.00
26541;DHT22;14206;50.202;10.948;2023-03-12T12:28:55;6.50;84.80
26541;DHT22;14206;50.202;10.948;2023-03-12T12:31:52;6.40;86.70
26541;DHT22;14206;50.202;10.948;2023-03-12T12:36:57;6.10;88.70
26541;DHT22;14206;50.202;10.948;2023-03-12T12:39:36;6.00;89.50
26541;DHT22;14206;50.202;10.948;2023-03-12T12:42:09;6.10;90.20
26541;DHT22;14206;50.202;10.948;2023-03-12T12:44:47;6.00;90.40
26541;DHT22;14206;50.202;10.948;2023-03-12T12:47:18;5.90;91.00
26541;DHT22;14206;50.202;10.948;2023-03-12T12:49:48;5.80;92.40
26541;DHT22;14206;50.202;10.948;2023-03-12T12:52:20;5.70;93.20
26541;DHT22;14206;50.202;10.948;2023-03-12T12:57:56;5.70;95.60
26541;DHT22;14206;50.202;10.948;2023-03-12T13:00:50;5.70;96.00
26541;DHT22;14206;50.202;10.948;2023-03-12T13:03:21;5.70;96.60
26541;DHT22;14206;50.202;10.948;2023-03-12T13:14:11;5.50;96.60
26541;DHT22;14206;50.202;10.948;2023-03-12T13:16:42;5.40;96.60
26541;DHT22;14206;50.202;10.948;2023-03-12T13:24:30;5.40;96.60
26541;DHT22;14206;50.202;10.948;2023-03-12T13:27:29;5.30;96.60
26541;DHT22;14206;50.202;10.948;2023-03-12T13:29:56;5.30;96.60
26541;DHT22;14206;50.202;10.948;2023-03-12T13:45:31;5.30;96.60
26541;DHT22;14206;50.202;10.948;2023-03-12T13:48:00;5.30;96.60
26541;DHT22;14206;50.202;10.948;2023-03-12T13:50:47;5.40;96.60
26541;DHT22;14206;50.202;10.948;2023-03-12T13:53:35;5.40;96.60
26541;DHT22;14206;50.202;10.948;2023-03-12T13:56:09;5.30;96.60
26541;DHT22;14206;50.202;10.948;2023-03-12T13:58:47;5.30;96.60
26541;DHT22;14206;50.202;10.948;2023-03-12T14:01:19;5.30;96.60
26541;DHT22;14206;50.202;10.948;2023-03-12T14:03:49;5.30;96.60
26541;DHT22;14206;50.202;10.948;2023-03-12T14:06:20;5.30;96.60
26541;DHT22;14206;50.202;10.948;2023-03-12T14:12:11;5.30;96.60
26541;DHT22;14206;50.202;10.948;2023-03-12T14:17:32;5.40;96.60
26541;DHT22;14206;50.202;10.948;2023-03-12T14:20:16;5.40;96.60
26541;DHT22;14206;50.202;10.948;2023-03-12T14:22:50;5.40;96.60
26541;DHT22;14206;50.202;10.948;2023-03-12T14:28:01;5.30;96.60
26541;DHT22;14206;50.202;10.948;2023-03-12T14:30:55;5.30;96.60
26541;DHT22;14206;50.202;10.948;2023-03-12T14:33:25;5.30;96.60
26541;DHT22;14206;50.202;10.948;2023-03-12T14:35:57;5.40;96.60
26541;DHT22;14206;50.202;10.948;2023-03-12T14:38:34;5.40;96.60
26541;DHT22;14206;50.202;10.948;2023-03-12T14:41:06;5.50;96.60
26541;DHT22;14206;50.202;10.948;2023-03-12T14:43:40;5.50;96.60
26541;DHT22;14206;50.202;10.948;2023-03-12T14:46:16;5.50;96.60
26541;DHT22;14206;50.202;10.948;2023-03-12T14:48:47;5.50;96.60
26541;DHT22;14206;50.202;10.948;2023-03-12T14:51:27;5.50;96.60
26541;DHT22;14206;50.202;10.948;2023-03-12T14:53:55;5.60;96.60
26541;DHT22;14206;50.202;10.948;2023-03-12T14:59:00;5.60;96.60
26541;DHT22;14206;50.202;10.948;2023-03-12T15:01:32;5.60;96.60
26541;DHT22;14206;50.202;10.948;2023-03-12T15:04:13;5.70;96.60
26541;DHT22;14206;50.202;10.948;2023-03-12T15:06:59;5.70;96.60
26541;DHT22;14206;50.202;10.948;2023-03-12T15:09:31;5.70;96.60
26541;DHT22;14206;50.202;10.948;2023-03-12T15:12:19;5.80;96.60
26541;DHT22;14206;50.202;10.948;2023-03-12T15:14:50;5.80;96.60
26541;DHT22;14206;50.202;10.948;2023-03-12T15:17:20;5.80;96.60
26541;DHT22;14206;50.202;10.948;2023-03-12T15:19:48;5.90;96.60
26541;DHT22;14206;50.202;10.948;2023-03-12T15:22:20;5.90;96.60
26541;DHT22;14206;50.202;10.948;2023-03-12T15:24:48;5.90;96.60
26541;DHT22;14206;50.202;10.948;2023-03-12T15:29:51;5.90;96.60
26541;DHT22;14206;50.202;10.948;2023-03-12T15:32:19;5.90;96.60
26541;DHT22;14206;50.202;10.948;2023-03-12T15:34:47;5.90;96.60
26541;DHT22;14206;50.202;10.948;2023-03-12T15:39:59;6.00;96.60
26541;DHT22;14206;50.202;10.948;2023-03-12T15:42:27;6.00;96.60
26541;DHT22;14206;50.202;10.948;2023-03-12T15:45:00;6.00;96.60
26541;DHT22;14206;50.202;10.948;2023-03-12T15:47:31;6.00;96.60
26541;DHT22;14206;50.202;10.948;2023-03-12T15:50:02;6.10;96.60
26541;DHT22;14206;50.202;10.948;2023-03-12T15:52:33;6.10;96.60
26541;DHT22;14206;50.202;10.948;2023-03-12T15:57:56;6.30;96.60
26541;DHT22;14206;50.202;10.948;2023-03-12T16:03:01;6.40;96.60
26541;DHT22;14206;50.202;10.948;2023-03-12T16:05:37;6.40;96.60
26541;DHT22;14206;50.202;10.948;2023-03-12T16:08:19;6.40;96.60
26541;DHT22;14206;50.202;10.948;2023-03-12T16:10:51;6.40;96.60
26541;DHT22;14206;50.202;10.948;2023-03-12T16:13:20;6.30;96.60
26541;DHT22;14206;50.202;10.948;2023-03-12T16:15:48;6.30;96.60
26541;DHT22;14206;50.202;10.948;2023-03-12T16:18:17;6.30;96.60
26541;DHT22;14206;50.202;10.948;2023-03-12T16:20:45;6.30;96.60
26541;DHT22;14206;50.202;10.948;2023-03-12T16:23:13;6.30;96.60
26541;DHT22;14206;50.202;10.948;2023-03-12T16:25:49;6.30;96.60
26541;DHT22;14206;50.202;10.948;2023-03-12T16:28:18;6.40;96.60
26541;DHT22;14206;50.202;10.948;2023-03-12T16:30:46;6.40;96.60
26541;DHT22;14206;50.202;10.948;2023-03-12T16:33:14;6.50;96.60
26541;DHT22;14206;50.202;10.948;2023-03-12T16:35:42;6.60;96.60
26541;DHT22;14206;50.202;10.948;2023-03-12T16:38:09;6.60;96.60
26541;DHT22;14206;50.202;10.948;2023-03-12T16:40:42;6.60;96.60
26541;DHT22;14206;50.202;10.948;2023-03-12T16:43:18;6.50;96.60
26541;DHT22;14206;50.202;10.948;2023-03-12T16:45:46;6.50;96.60
26541;DHT22;14206;50.202;10.948;2023-03-12T16:48:20;6.50;96.60
26541;DHT22;14206;50.202;10.948;2023-03-12T16:50:52;6.50;96.60
26541;DHT22;14206;50.202;10.948;2023-03-12T16:53:19;6.50;96.60
26541;DHT22;14206;50.202;10.948;2023-03-12T16:55:52;6.50;96.60
26541;DHT22;14206;50.202;10.948;2023-03-12T16:58:21;6.60;96.60
26541;DHT22;14206;50.202;10.948;2023-03-12T17:00:49;6.70;96.60
26541;DHT22;14206;50.202;10.948;2023-03-12T17:03:35;6.70;96.60
26541;DHT22;14206;50.202;10.948;2023-03-12T17:06:05;6.80;96.60
26541;DHT22;14206;50.202;10.948;2023-03-12T17:08:32;6.90;96.60
26541;DHT22;14206;50.202;10.948;2023-03-12T17:11:01;6.90;96.60
26541;DHT22;14206;50.202;10.948;2023-03-12T17:13:28;6.90;96.60
26541;DHT22;14206;50.202;10.948;2023-03-12T17:15:55;6.90;96.60
26541;DHT22;14206;50.202;10.948;2023-03-12T17:18:22;7.00;96.60
26541;DHT22;14206;50.202;10.948;2023-03-12T17:20:49;7.00;96.60
26541;DHT22;14206;50.202;10.948;2023-03-12T17:23:17;7.00;96.60
26541;DHT22;14206;50.202;10.948;2023-03-12T17:25:44;7.00;96.60
26541;DHT22;14206;50.202;10.948;2023-03-12T17:28:12;7.10;96.60
26541;DHT22;14206;50.202;10.948;2023-03-12T17:30:41;7.10;96.60
26541;DHT22;14206;50.202;10.948;2023-03-12T17:33:11;7.00;96.60
26541;DHT22;14206;50.202;10.948;2023-03-12T17:35:38;7.00;96.60
26541;DHT22;14206;50.202;10.948;2023-03-12T17:38:06;7.00;96.60
26541;DHT22;14206;50.202;10.948;2023-03-12T17:40:33;7.00;96.60